createdAt,value
2018-05-14T00:00:36.722Z,95002.20
2018-05-14T00:03:04.273Z,95000.70
2018-05-14T00:05:31.801Z,94996.33
2018-05-14T00:07:59.318Z,94991.22
2018-05-14T00:10:26.848Z,94976.19
2018-05-14T00:12:54.385Z,94999.17
2018-05-14T00:15:21.911Z,94994.52
2018-05-14T00:17:49.451Z,94992.13
2018-05-14T00:20:16.973Z,94991.97
2018-05-14T00:22:44.489Z,94993.86
2018-05-14T00:25:12.011Z,94982.92
2018-05-14T00:27:39.536Z,94986.70
2018-05-14T00:30:07.098Z,94999.98
2018-05-14T00:32:34.618Z,94982.83
2018-05-14T00:35:02.145Z,94978.35
2018-05-14T00:37:29.662Z,94990.22
2018-05-14T00:39:57.181Z,94990.97
2018-05-14T00:42:24.718Z,94995.63
2018-05-14T00:44:52.243Z,94997.39
2018-05-14T00:47:19.768Z,94996.77
2018-05-14T00:49:47.293Z,94987.09
2018-05-14T00:52:14.814Z,95001.25
2018-05-14T00:54:54.117Z,94996.22
2018-05-14T00:57:21.650Z,95002.88
2018-05-14T00:59:49.178Z,94993.63
2018-05-14T01:02:16.756Z,94990.02
2018-05-14T01:04:44.279Z,94993.28
2018-05-14T01:07:11.814Z,94989.23
2018-05-14T01:09:39.338Z,94978.98
2018-05-14T01:12:06.910Z,94989.52
2018-05-14T01:14:34.443Z,94993.61
2018-05-14T01:17:02.034Z,94991.32
2018-05-14T01:19:29.570Z,94994.37
2018-05-14T01:21:57.099Z,94999.09
2018-05-14T01:24:24.625Z,94994.57
2018-05-14T01:26:52.159Z,94992.30
2018-05-14T01:29:19.689Z,94997.83
2018-05-14T01:31:47.227Z,94989.80
2018-05-14T01:34:14.765Z,94976.10
2018-05-14T01:36:42.295Z,94994.70
2018-05-14T01:39:09.827Z,94969.70
2018-05-14T01:41:37.355Z,94998.49
2018-05-14T01:44:04.887Z,94988.89
2018-05-14T01:46:32.415Z,94990.86
2018-05-14T01:48:59.946Z,94989.03
2018-05-14T01:51:27.481Z,94988.16
2018-05-14T01:53:55.023Z,94984.88
2018-05-14T01:56:22.581Z,94979.15
2018-05-14T01:58:50.101Z,94971.14
2018-05-14T02:01:17.641Z,94981.70
2018-05-14T02:03:45.186Z,94980.42
2018-05-14T02:06:12.714Z,94984.49
2018-05-14T02:08:40.243Z,94978.27
2018-05-14T02:11:07.787Z,94981.30
2018-05-14T02:13:35.323Z,94986.88
2018-05-14T02:16:02.890Z,94991.41
2018-05-14T02:18:30.413Z,94989.31
2018-05-14T02:20:58.013Z,94989.66
2018-05-14T02:23:25.562Z,94992.55
2018-05-14T02:25:53.088Z,94989.75
2018-05-14T02:28:20.617Z,94995.02
2018-05-14T02:30:48.150Z,94991.91
2018-05-14T02:33:15.686Z,94992.64
2018-05-14T02:35:43.215Z,94991.04
2018-05-14T02:38:10.802Z,94987.22
2018-05-14T02:40:38.325Z,94991.71
2018-05-14T02:43:05.890Z,94983.09
2018-05-14T02:45:33.436Z,95001.84
2018-05-14T02:48:00.960Z,94999.20
2018-05-14T02:50:28.496Z,94986.59
2018-05-14T02:52:56.026Z,94999.48
2018-05-14T02:55:23.563Z,95000.20
2018-05-14T02:57:51.093Z,95003.48
2018-05-14T03:00:18.623Z,94997.41
2018-05-14T03:02:46.148Z,95014.33
2018-05-14T03:05:13.674Z,95011.38
2018-05-14T03:07:41.207Z,95012.94
2018-05-14T03:10:08.738Z,95014.00
2018-05-14T03:12:36.273Z,95012.09
2018-05-14T03:15:03.809Z,95006.94
2018-05-14T03:17:31.337Z,94999.67
2018-05-14T03:19:58.857Z,95003.55
2018-05-14T03:22:26.384Z,95009.93
2018-05-14T03:24:53.917Z,95010.28
2018-05-14T03:27:21.442Z,95018.61
2018-05-14T03:29:48.976Z,95013.64
2018-05-14T03:32:16.507Z,94996.94
2018-05-14T03:34:44.036Z,95028.31
2018-05-14T03:37:11.571Z,95018.33
2018-05-14T03:39:39.110Z,95019.53
2018-05-14T03:42:06.637Z,95022.31
2018-05-14T03:44:34.170Z,95026.75
2018-05-14T03:47:01.699Z,95030.12
2018-05-14T03:49:29.239Z,95032.12
2018-05-14T03:51:56.765Z,95010.83
2018-05-14T03:54:24.310Z,95028.91
2018-05-14T03:56:51.856Z,95021.55
2018-05-14T03:59:31.307Z,95029.33
2018-05-14T04:02:21.510Z,95030.73
2018-05-14T04:05:00.639Z,95033.73
2018-05-14T04:07:28.162Z,95032.73
2018-05-14T04:09:55.686Z,95029.83
2018-05-14T04:12:23.262Z,95036.35
2018-05-14T04:14:50.789Z,95021.89
2018-05-14T04:17:18.309Z,95045.95
2018-05-14T04:19:45.836Z,95042.38
2018-05-14T04:22:13.367Z,95042.38
2018-05-14T04:24:40.932Z,95046.45
2018-05-14T04:27:08.483Z,95045.95
2018-05-14T04:29:36.963Z,95056.93
2018-05-14T04:32:04.514Z,95052.34
2018-05-14T04:34:32.046Z,95053.83
2018-05-14T04:36:59.572Z,95059.34
2018-05-14T04:39:27.131Z,95059.15
2018-05-14T04:41:54.659Z,95044.14
2018-05-14T04:44:22.195Z,95061.56
2018-05-14T04:46:49.731Z,95057.73
2018-05-14T04:49:17.276Z,95073.79
2018-05-14T04:51:44.778Z,95076.30
2018-05-14T04:54:12.299Z,95074.46
2018-05-14T04:56:39.815Z,95073.14
2018-05-14T04:59:07.343Z,95071.69
2018-05-14T05:01:34.852Z,95083.05
2018-05-14T05:04:02.374Z,95089.84
2018-05-14T05:06:29.882Z,95089.38
2018-05-14T05:08:57.403Z,95081.02
2018-05-14T05:11:24.978Z,95085.19
2018-05-14T05:13:52.437Z,95086.83
2018-05-14T05:16:19.952Z,95096.94
2018-05-14T05:18:47.464Z,95094.48
2018-05-14T05:21:14.997Z,95093.82
2018-05-14T05:23:42.557Z,95094.27
2018-05-14T05:26:10.088Z,95099.43
2018-05-14T05:28:37.619Z,95095.16
2018-05-14T05:31:05.133Z,95097.64
2018-05-14T05:33:32.651Z,95087.27
2018-05-14T05:36:00.157Z,95098.34
2018-05-14T05:38:27.682Z,95091.36
2018-05-14T05:40:55.206Z,95096.38
2018-05-14T05:43:22.727Z,95095.81
2018-05-14T05:45:50.236Z,95103.61
2018-05-14T05:48:17.806Z,95094.13
2018-05-14T05:50:45.318Z,95101.65
2018-05-14T05:53:12.868Z,95098.18
2018-05-14T05:55:40.375Z,95099.80
2018-05-14T05:58:07.880Z,95111.44
2018-05-14T06:00:35.454Z,95110.10
2018-05-14T06:03:02.971Z,95116.88
2018-05-14T06:05:30.488Z,95108.50
2018-05-14T06:07:57.998Z,95097.39
2018-05-14T06:10:25.516Z,95093.09
2018-05-14T06:12:53.040Z,95099.94
2018-05-14T06:15:20.555Z,95093.66
2018-05-14T06:17:48.059Z,95098.55
2018-05-14T06:20:15.617Z,95086.99
2018-05-14T06:22:43.137Z,95096.22
2018-05-14T06:25:10.711Z,95097.61
2018-05-14T06:27:38.220Z,95097.18
2018-05-14T06:30:05.814Z,95091.58
2018-05-14T06:32:33.341Z,95096.09
2018-05-14T06:35:00.855Z,95094.34
2018-05-14T06:37:28.459Z,95091.94
2018-05-14T06:39:56.003Z,95097.45
2018-05-14T06:42:23.514Z,95097.83
2018-05-14T06:44:51.060Z,95102.00
2018-05-14T06:47:18.561Z,95103.11
2018-05-14T06:49:46.104Z,95102.50
2018-05-14T06:52:13.624Z,95087.61
2018-05-14T06:54:41.161Z,95094.30
2018-05-14T06:57:08.702Z,95095.83
2018-05-14T06:59:36.271Z,95093.11
2018-05-14T07:02:03.801Z,95098.39
2018-05-14T07:04:31.381Z,95104.52
2018-05-14T07:06:58.938Z,95101.52
2018-05-14T07:09:26.523Z,95093.56
2018-05-14T07:11:54.004Z,95091.80
2018-05-14T07:14:21.514Z,95099.16
2018-05-14T07:16:49.018Z,95104.48
2018-05-14T07:19:16.630Z,95105.86
2018-05-14T07:21:44.096Z,95100.31
2018-05-14T07:24:11.639Z,95117.25
2018-05-14T07:26:39.167Z,95113.77
2018-05-14T07:29:06.722Z,95107.73
2018-05-14T07:31:34.233Z,95086.23
2018-05-14T07:34:01.796Z,95115.37
2018-05-14T07:36:29.312Z,95109.78
2018-05-14T07:38:56.941Z,95101.20
2018-05-14T07:41:24.452Z,95103.45
2018-05-14T07:43:52.004Z,95110.14
2018-05-14T07:46:19.536Z,95109.33
2018-05-14T07:48:47.064Z,95108.94
2018-05-14T07:51:14.637Z,95110.64
2018-05-14T07:53:42.167Z,95110.11
2018-05-14T07:56:09.942Z,95109.05
2018-05-14T07:58:37.272Z,95110.83
2018-05-14T08:01:04.786Z,95115.37
2018-05-14T08:03:32.334Z,95116.37
2018-05-14T08:05:59.868Z,95113.03
2018-05-14T08:08:27.399Z,95114.61
2018-05-14T08:10:54.910Z,95114.64
2018-05-14T08:13:22.420Z,95113.98
2018-05-14T08:15:49.962Z,95115.67
2018-05-14T08:18:17.490Z,95106.13
2018-05-14T08:20:44.995Z,95105.98
2018-05-14T08:23:12.494Z,95102.47
2018-05-14T08:25:40.006Z,95103.60
2018-05-14T08:28:07.520Z,95089.78
2018-05-14T08:30:35.074Z,95105.38
2018-05-14T08:33:02.590Z,95101.81
2018-05-14T08:35:30.107Z,95111.66
2018-05-14T08:37:57.624Z,95121.47
2018-05-14T08:40:25.131Z,95108.16
2018-05-14T08:42:52.677Z,95109.00
2018-05-14T08:45:20.187Z,95090.16
2018-05-14T08:47:47.696Z,95097.19
2018-05-14T08:50:15.219Z,95091.73
2018-05-14T08:52:42.864Z,95081.25
2018-05-14T08:55:10.371Z,95086.98
2018-05-14T08:57:37.982Z,95083.16
2018-05-14T09:00:05.653Z,95086.61
2018-05-14T09:02:33.170Z,95086.78
2018-05-14T09:05:00.692Z,95087.58
2018-05-14T09:07:28.206Z,95063.97
2018-05-14T09:09:55.729Z,95083.16
2018-05-14T09:12:23.237Z,95087.80
2018-05-14T09:14:50.751Z,95080.80
2018-05-14T09:17:18.329Z,95074.02
2018-05-14T09:19:45.824Z,95079.16
2018-05-14T09:22:13.330Z,95082.77
2018-05-14T09:24:40.847Z,95081.99
2018-05-14T09:27:08.350Z,95081.95
2018-05-14T09:29:35.884Z,95072.55
2018-05-14T09:32:03.461Z,95083.19
2018-05-14T09:34:30.984Z,95080.30
2018-05-14T09:36:58.513Z,95093.59
2018-05-14T09:39:26.029Z,95069.30
2018-05-14T09:41:53.556Z,95067.88
2018-05-14T09:44:21.084Z,95072.39
2018-05-14T09:46:48.593Z,95068.30
2018-05-14T09:49:16.099Z,95058.72
2018-05-14T09:51:44.236Z,95055.48
2018-05-14T09:54:11.745Z,95063.05
2018-05-14T09:56:39.263Z,95067.06
2018-05-14T09:59:06.768Z,95061.06
2018-05-14T10:01:34.296Z,95059.10
2018-05-14T10:04:01.858Z,95063.34
2018-05-14T10:06:29.379Z,95068.35
2018-05-14T10:08:56.896Z,95076.17
2018-05-14T10:11:24.416Z,95062.36
2018-05-14T10:13:51.922Z,95060.60
2018-05-14T10:16:19.443Z,95081.41
2018-05-14T10:18:47.019Z,95098.20
2018-05-14T10:21:14.494Z,95095.61
2018-05-14T10:23:41.999Z,95088.34
2018-05-14T10:26:09.536Z,95085.66
2018-05-14T10:28:37.063Z,95078.41
2018-05-14T10:31:04.597Z,95084.30
2018-05-14T10:33:32.103Z,95082.81
2018-05-14T10:35:59.624Z,95084.83
2018-05-14T10:38:27.122Z,95090.49
2018-05-14T10:40:54.637Z,95103.17
2018-05-14T10:43:22.147Z,95096.98
2018-05-14T10:45:49.658Z,95099.36
2018-05-14T10:48:17.178Z,95094.27
2018-05-14T10:50:44.709Z,95103.77
2018-05-14T10:53:12.219Z,95101.23
2018-05-14T10:55:39.802Z,95103.73
2018-05-14T10:58:07.309Z,95112.64
2018-05-14T11:00:34.882Z,95118.63
2018-05-14T11:03:02.383Z,95111.08
2018-05-14T11:05:29.916Z,95103.70
2018-05-14T11:07:57.473Z,95091.45
2018-05-14T11:10:24.986Z,95111.34
2018-05-14T11:12:52.499Z,95107.95
2018-05-14T11:15:20.034Z,95107.99
2018-05-14T11:17:47.571Z,95102.78
2018-05-14T11:20:15.074Z,95104.83
2018-05-14T11:22:42.596Z,95121.50
2018-05-14T11:25:10.105Z,95122.41
2018-05-14T11:27:37.703Z,95126.36
2018-05-14T11:30:05.444Z,95131.80
2018-05-14T11:32:33.068Z,95130.28
2018-05-14T11:35:00.622Z,95134.00
2018-05-14T11:37:28.194Z,95130.86
2018-05-14T11:39:55.747Z,95135.29
2018-05-14T11:42:23.260Z,95128.32
2018-05-14T11:44:50.808Z,95134.00
2018-05-14T11:47:18.843Z,95137.23
2018-05-14T11:49:46.349Z,95144.63
2018-05-14T11:52:13.852Z,95134.28
2018-05-14T11:54:41.355Z,95117.36
2018-05-14T11:57:08.911Z,95099.64
2018-05-14T11:59:36.427Z,95097.63
2018-05-14T12:02:03.945Z,95097.53
2018-05-14T12:04:31.468Z,95105.02
2018-05-14T12:06:59.045Z,95089.78
2018-05-14T12:09:26.560Z,95102.23
2018-05-14T12:11:55.918Z,95090.03
2018-05-14T12:14:23.437Z,95085.70
2018-05-14T12:16:50.976Z,95086.33
2018-05-14T12:19:18.477Z,95079.81
2018-05-14T12:21:45.981Z,95079.75
2018-05-14T12:24:13.520Z,95072.94
2018-05-14T12:26:41.034Z,95065.89
2018-05-14T12:29:08.545Z,95063.77
2018-05-14T12:31:36.141Z,95063.60
2018-05-14T12:34:03.651Z,95061.70
2018-05-14T12:36:31.164Z,95064.61
2018-05-14T12:38:58.690Z,95057.42
2018-05-14T12:41:26.191Z,95053.54
2018-05-14T12:43:53.687Z,95055.34
2018-05-14T12:46:21.203Z,95034.14
2018-05-14T12:48:48.750Z,95046.17
2018-05-14T12:51:16.310Z,95049.41
2018-05-14T12:53:44.776Z,95041.50
2018-05-14T12:56:12.309Z,95038.50
2018-05-14T12:58:39.824Z,95036.88
2018-05-14T13:01:07.343Z,95046.08
2018-05-14T13:03:34.849Z,95051.69
2018-05-14T13:06:02.519Z,95033.31
2018-05-14T13:08:30.032Z,95046.45
2018-05-14T13:10:57.596Z,95039.87
2018-05-14T13:13:25.107Z,95043.89
2018-05-14T13:15:52.635Z,95038.84
2018-05-14T13:18:20.159Z,95036.88
2018-05-14T13:20:47.696Z,95038.45
2018-05-14T13:23:15.220Z,95031.90
2018-05-14T13:25:42.762Z,95030.03
2018-05-14T13:28:10.307Z,95033.91
2018-05-14T13:30:37.864Z,95026.59
2018-05-14T13:33:05.384Z,95022.46
2018-05-14T13:35:32.887Z,95040.20
2018-05-14T13:38:00.471Z,95029.86
2018-05-14T13:40:27.990Z,95030.55
2018-05-14T13:42:55.607Z,95016.80
2018-05-14T13:45:23.101Z,95017.97
2018-05-14T13:47:50.614Z,95000.21
2018-05-14T13:50:18.121Z,95014.01
2018-05-14T13:52:46.415Z,95013.12
2018-05-14T13:55:13.915Z,95000.09
2018-05-14T13:57:41.419Z,95009.13
2018-05-14T14:00:08.964Z,95010.80
2018-05-14T14:02:36.480Z,95018.20
2018-05-14T14:05:04.074Z,95013.91
2018-05-14T14:07:31.545Z,95019.24
2018-05-14T14:09:59.046Z,95024.58
2018-05-14T14:12:26.548Z,95027.81
2018-05-14T14:14:54.093Z,95036.16
2018-05-14T14:17:21.598Z,95030.59
2018-05-14T14:19:49.095Z,95018.59
2018-05-14T14:22:16.587Z,95055.21
2018-05-14T14:24:44.106Z,95046.83
2018-05-14T14:27:11.614Z,95047.64
2018-05-14T14:29:40.008Z,95038.42
2018-05-14T14:32:08.361Z,95045.31
2018-05-14T14:34:35.887Z,95049.20
2018-05-14T14:37:03.451Z,95027.70
2018-05-14T14:39:30.919Z,95048.63
2018-05-14T14:41:58.417Z,95045.98
2018-05-14T14:44:26.008Z,95039.25
2018-05-14T14:46:53.523Z,95045.73
2018-05-14T14:49:21.066Z,95036.31
2018-05-14T14:51:48.559Z,95040.55
2018-05-14T14:54:16.313Z,95038.19
2018-05-14T14:56:43.819Z,95014.17
2018-05-14T14:59:11.400Z,95030.48
2018-05-14T15:01:38.938Z,95029.88
2018-05-14T15:04:06.447Z,95026.50
2018-05-14T15:06:33.950Z,95041.45
2018-05-14T15:09:01.555Z,95047.77
2018-05-14T15:11:29.069Z,95052.77
2018-05-14T15:13:56.654Z,95051.09
2018-05-14T15:16:24.439Z,95054.80
2018-05-14T15:18:51.942Z,95031.55
2018-05-14T15:21:19.495Z,95035.48
2018-05-14T15:23:47.006Z,95040.02
2018-05-14T15:26:14.558Z,95042.38
2018-05-14T15:28:42.074Z,95037.94
2018-05-14T15:31:10.043Z,95045.87
2018-05-14T15:33:37.917Z,95061.15
2018-05-14T15:36:05.475Z,95046.52
2018-05-14T15:38:32.997Z,95050.39
2018-05-14T15:41:00.514Z,95074.63
2018-05-14T15:43:28.064Z,95061.02
2018-05-14T15:45:55.577Z,95045.92
2018-05-14T15:48:23.120Z,95050.28
2018-05-14T15:50:50.640Z,95042.03
2018-05-14T15:53:18.156Z,95041.14
2018-05-14T15:55:45.747Z,95034.84
2018-05-14T15:58:13.312Z,95026.39
2018-05-14T16:00:40.839Z,95035.30
2018-05-14T16:03:08.351Z,95055.76
2018-05-14T16:05:36.134Z,95036.30
2018-05-14T16:08:03.702Z,95027.28
2018-05-14T16:10:31.203Z,95042.09
2018-05-14T16:12:58.722Z,95030.73
2018-05-14T16:15:26.228Z,95022.05
2018-05-14T16:17:53.946Z,95023.87
2018-05-14T16:20:21.551Z,95022.08
2018-05-14T16:22:49.065Z,95027.99
2018-05-14T16:25:16.575Z,95024.80
2018-05-14T16:27:44.076Z,95034.77
2018-05-14T16:30:11.590Z,95035.84
2018-05-14T16:32:39.125Z,95053.73
2018-05-14T16:35:07.377Z,95031.90
2018-05-14T16:37:34.890Z,95064.34
2018-05-14T16:40:02.451Z,95052.22
2018-05-14T16:42:29.947Z,95034.48
2018-05-14T16:44:57.453Z,95057.54
2018-05-14T16:47:25.002Z,95046.77
2018-05-14T16:49:53.269Z,95050.83
2018-05-14T16:52:20.779Z,95051.43
2018-05-14T16:54:48.330Z,95051.98
2018-05-14T16:57:15.839Z,95049.47
2018-05-14T16:59:43.396Z,95056.34
2018-05-14T17:02:10.951Z,95062.10
2018-05-14T17:04:38.467Z,95059.34
2018-05-14T17:07:05.971Z,95051.59
2018-05-14T17:09:33.507Z,95050.44
2018-05-14T17:12:01.023Z,95063.92
2018-05-14T17:14:28.530Z,95056.51
2018-05-14T17:16:56.100Z,95060.64
2018-05-14T17:19:23.613Z,95081.56
2018-05-14T17:21:51.182Z,95080.41
2018-05-14T17:24:18.686Z,95064.77
2018-05-14T17:26:46.227Z,95078.05
2018-05-14T17:29:13.780Z,95094.27
2018-05-14T17:31:41.317Z,95091.50
2018-05-14T17:34:08.871Z,95102.67
2018-05-14T17:36:36.419Z,95090.33
2018-05-14T17:39:03.999Z,95086.45
2018-05-14T17:41:31.516Z,95108.72
2018-05-14T17:43:59.048Z,95110.09
2018-05-14T17:46:26.569Z,95125.14
2018-05-14T17:48:54.071Z,95122.81
2018-05-14T17:51:21.603Z,95118.70
2018-05-14T17:53:49.176Z,95123.95
2018-05-14T17:56:16.737Z,95128.47
2018-05-14T17:58:44.254Z,95129.25
2018-05-14T18:01:11.755Z,95139.22
2018-05-14T18:03:39.270Z,95138.25
2018-05-14T18:06:06.828Z,95138.84
2018-05-14T18:08:34.442Z,95141.37
2018-05-14T18:11:02.041Z,95137.44
2018-05-14T18:13:29.492Z,95150.73
2018-05-14T18:15:57.008Z,95152.11
2018-05-14T18:18:24.537Z,95157.19
2018-05-14T18:20:52.128Z,95150.73
2018-05-14T18:23:23.524Z,95157.77
2018-05-14T18:29:05.880Z,95178.13
2018-05-14T18:31:33.422Z,95179.89
2018-05-14T18:34:06.565Z,95184.77
2018-05-14T18:36:34.100Z,95184.77
2018-05-14T18:39:01.629Z,95178.13
2018-05-14T18:41:29.208Z,95174.81
2018-05-14T18:43:56.740Z,95182.61
2018-05-14T18:46:24.358Z,95184.57
2018-05-14T18:48:51.803Z,95187.30
2018-05-14T18:51:19.404Z,95192.39
2018-05-14T18:53:46.917Z,95186.13
2018-05-14T18:56:14.450Z,95193.57
2018-05-14T18:58:42.197Z,95192.39
2018-05-14T19:01:09.722Z,95199.03
2018-05-14T19:03:37.247Z,95202.95
2018-05-14T19:06:04.783Z,95204.31
2018-05-14T19:08:32.571Z,95202.95
2018-05-14T19:11:05.718Z,95207.64
2018-05-14T19:13:33.241Z,95209.59
2018-05-14T19:16:06.331Z,95212.08
2018-05-14T19:18:33.884Z,95222.69
2018-05-14T19:21:01.402Z,95212.11
2018-05-14T19:23:34.575Z,95216.98
2018-05-14T19:26:02.095Z,95221.49
2018-05-14T19:28:35.144Z,95212.66
2018-05-14T19:31:02.663Z,95209.13
2018-05-14T19:33:35.715Z,95224.78
2018-05-14T19:36:03.285Z,95222.81
2018-05-14T19:38:30.773Z,95220.27
2018-05-14T19:40:58.282Z,95222.75
2018-05-14T19:43:25.804Z,95220.36
2018-05-14T19:45:53.322Z,95216.03
2018-05-14T19:48:20.863Z,95220.31
2018-05-14T19:50:48.372Z,95228.38
2018-05-14T19:53:15.907Z,95233.87
2018-05-14T19:55:43.423Z,95227.20
2018-05-14T19:58:10.939Z,95230.12
2018-05-14T20:00:38.472Z,95227.88
2018-05-14T20:03:05.995Z,95220.47
2018-05-14T20:05:33.602Z,95221.44
2018-05-14T20:08:01.117Z,95210.09
2018-05-14T20:10:30.750Z,95224.41
2018-05-14T20:12:58.301Z,95229.86
2018-05-14T20:15:25.919Z,95224.63
2018-05-14T20:17:53.459Z,95228.45
2018-05-14T20:20:21.289Z,95222.08
2018-05-14T20:22:48.854Z,95231.80
2018-05-14T20:25:16.419Z,95236.47
2018-05-14T20:27:43.996Z,95229.24
2018-05-14T20:30:11.560Z,95234.49
2018-05-14T20:32:39.071Z,95234.55
2018-05-14T20:35:06.579Z,95224.26
2018-05-14T20:37:34.119Z,95226.36
2018-05-14T20:40:01.632Z,95236.50
2018-05-14T20:42:29.208Z,95239.52
2018-05-14T20:44:56.740Z,95227.24
2018-05-14T20:47:24.346Z,95233.66
2018-05-14T20:49:51.851Z,95219.16
2018-05-14T20:52:19.363Z,95237.76
2018-05-14T20:54:46.887Z,95236.39
2018-05-14T20:57:14.440Z,95228.01
2018-05-14T20:59:41.963Z,95224.52
2018-05-14T21:02:09.486Z,95213.09
2018-05-14T21:04:37.037Z,95227.12
2018-05-14T21:07:04.592Z,95224.96
2018-05-14T21:09:32.103Z,95220.44
2018-05-14T21:11:59.635Z,95233.82
2018-05-14T21:14:27.205Z,95231.77
2018-05-14T21:16:54.711Z,95222.41
2018-05-14T21:19:22.236Z,95209.05
2018-05-14T21:21:49.743Z,95221.44
2018-05-14T21:24:17.261Z,95216.21
2018-05-14T21:26:44.882Z,95213.51
2018-05-14T21:29:12.398Z,95209.62
2018-05-14T21:31:39.951Z,95202.58
2018-05-14T21:34:07.780Z,95205.86
2018-05-14T21:36:35.296Z,95205.66
2018-05-14T21:39:02.879Z,95196.09
2018-05-14T21:41:30.365Z,95219.47
2018-05-14T21:43:57.879Z,95195.16
2018-05-14T21:46:25.442Z,95192.64
2018-05-14T21:48:52.989Z,95194.61
2018-05-14T21:51:20.575Z,95201.65
2018-05-14T21:53:48.104Z,95206.48
2018-05-14T21:56:15.623Z,95211.00
2018-05-14T21:58:43.137Z,95199.47
2018-05-14T22:01:10.686Z,95223.44
2018-05-14T22:03:38.200Z,95220.84
2018-05-14T22:06:05.745Z,95216.53
2018-05-14T22:08:33.304Z,95225.66
2018-05-14T22:11:00.851Z,95215.80
2018-05-14T22:13:28.363Z,95214.07
2018-05-14T22:15:55.943Z,95214.77
2018-05-14T22:18:23.575Z,95212.27
2018-05-14T22:20:51.031Z,95215.22
2018-05-14T22:23:18.602Z,95219.63
2018-05-14T22:25:46.151Z,95224.41
2018-05-14T22:28:13.708Z,95217.89
2018-05-14T22:30:41.269Z,95231.98
2018-05-14T22:33:08.777Z,95232.67
2018-05-14T22:35:36.288Z,95231.52
2018-05-14T22:38:03.830Z,95241.41
2018-05-14T22:40:31.373Z,95244.92
2018-05-14T22:42:58.932Z,95240.41
2018-05-14T22:45:26.531Z,95238.06
2018-05-14T22:47:54.055Z,95242.35
2018-05-14T22:50:21.575Z,95247.47
2018-05-14T22:52:49.090Z,95246.33
2018-05-14T22:55:16.615Z,95247.67
2018-05-14T22:57:44.172Z,95239.08
2018-05-14T23:00:11.739Z,95245.67
2018-05-14T23:02:39.289Z,95247.31
2018-05-14T23:05:06.793Z,95247.88
2018-05-14T23:07:34.319Z,95251.23
2018-05-14T23:10:01.847Z,95251.34
2018-05-14T23:12:29.393Z,95255.16
2018-05-14T23:14:56.916Z,95234.16
2018-05-14T23:17:24.437Z,95251.19
2018-05-14T23:19:51.986Z,95244.93
2018-05-14T23:22:19.564Z,95245.47
2018-05-14T23:24:47.096Z,95247.80
2018-05-14T23:27:14.609Z,95253.00
2018-05-14T23:29:42.133Z,95231.57
2018-05-14T23:32:09.677Z,95248.28
2018-05-14T23:34:37.244Z,95247.11
2018-05-14T23:37:04.761Z,95252.86
2018-05-14T23:39:32.317Z,95257.72
2018-05-14T23:41:59.840Z,95253.64
2018-05-14T23:44:27.400Z,95254.19
2018-05-14T23:46:54.916Z,95263.77
2018-05-14T23:49:22.512Z,95253.98
2018-05-14T23:51:50.049Z,95254.27
2018-05-14T23:54:17.577Z,95249.34
2018-05-14T23:56:45.136Z,95250.95
2018-05-14T23:59:12.697Z,95246.94
